createdAt,value
2023-01-09T00:00:58.668Z,96157.97
2023-01-09T00:03:25.519Z,96146.72
2023-01-09T00:05:52.783Z,96133.94
2023-01-09T00:08:19.601Z,96139.13
2023-01-09T00:10:49.078Z,96138.16
2023-01-09T00:13:17.908Z,96119.16
2023-01-09T00:15:44.981Z,96119.75
2023-01-09T00:18:11.851Z,96122.88
2023-01-09T00:20:38.555Z,96118.13
2023-01-09T00:23:05.337Z,96109.78
2023-01-09T00:25:32.170Z,96111.56
2023-01-09T00:27:58.892Z,96111.56
2023-01-09T00:30:26.089Z,96111.56
2023-01-09T00:32:55.069Z,96104.63
2023-01-09T00:35:24.990Z,96106.41
2023-01-09T00:37:51.815Z,96097.59
2023-01-09T00:40:19.898Z,96105.91
2023-01-09T00:42:53.369Z,96101.56
2023-01-09T00:45:28.795Z,96096.25
2023-01-09T00:48:07.358Z,96096.13
2023-01-09T00:50:35.669Z,96079.84
2023-01-09T00:53:13.221Z,96079.69
2023-01-09T00:55:40.955Z,96085.69
2023-01-09T00:58:08.453Z,96081.72
2023-01-09T01:00:35.671Z,96096.06
2023-01-09T01:03:02.575Z,96081.31
2023-01-09T01:05:47.656Z,96078.03
2023-01-09T01:08:17.604Z,96067.47
2023-01-09T01:10:46.897Z,96070.06
2023-01-09T01:13:14.732Z,96078.97
2023-01-09T01:15:43.895Z,96076.25
2023-01-09T01:18:13.113Z,96066.06
2023-01-09T01:20:42.641Z,96067.72
2023-01-09T01:23:09.590Z,96075.44
2023-01-09T01:25:42.459Z,96075.44
2023-01-09T01:28:10.419Z,96061.06
2023-01-09T01:30:42.734Z,96071.50
2023-01-09T01:33:11.079Z,96075.72
2023-01-09T01:35:38.180Z,96066.88
2023-01-09T01:38:05.122Z,96079.25
2023-01-09T01:40:32.369Z,96084.66
2023-01-09T01:42:59.239Z,96079.88
2023-01-09T01:45:29.403Z,96081.63
2023-01-09T01:48:09.501Z,96067.09
2023-01-09T01:51:01.115Z,96066.56
2023-01-09T01:53:33.379Z,96065.59
2023-01-09T01:56:32.253Z,96065.59
2023-01-09T01:59:14.464Z,96066.44
2023-01-09T02:01:48.575Z,96075.66
2023-01-09T02:04:15.906Z,96069.69
2023-01-09T02:06:46.335Z,96052.34
2023-01-09T02:09:15.254Z,96036.88
2023-01-09T02:11:54.474Z,96026.66
2023-01-09T02:14:25.923Z,96035.34
2023-01-09T02:17:22.986Z,96038.19
2023-01-09T02:20:32.508Z,96027.06
2023-01-09T02:23:29.651Z,96051.91
2023-01-09T02:26:20.515Z,96050.28
2023-01-09T02:29:36.929Z,96032.22
2023-01-09T02:32:45.235Z,96023.53
2023-01-09T02:35:43.981Z,96013.22
2023-01-09T02:38:16.406Z,96005.47
2023-01-09T02:41:12.968Z,96007.78
2023-01-09T02:43:41.595Z,96019.75
2023-01-09T02:46:22.825Z,96018.94
2023-01-09T02:48:54.767Z,95996.44
2023-01-09T02:51:51.151Z,96005.94
2023-01-09T02:54:54.342Z,96007.56
2023-01-09T02:57:41.748Z,96004.03
2023-01-09T03:00:27.831Z,95992.09
2023-01-09T03:03:19.318Z,95986.94
2023-01-09T03:05:51.420Z,95974.28
2023-01-09T03:08:31.340Z,95979.44
2023-01-09T03:11:06.489Z,95989.88
2023-01-09T03:13:45.771Z,95989.34
2023-01-09T03:16:20.418Z,95981.84
2023-01-09T03:18:51.398Z,95995.69
2023-01-09T03:21:20.780Z,95973.53
2023-01-09T03:23:56.892Z,95981.16
2023-01-09T03:26:24.239Z,95977.03
2023-01-09T03:28:51.621Z,95969.44
2023-01-09T03:31:18.778Z,95972.97
2023-01-09T03:33:45.578Z,95974.22
2023-01-09T03:36:14.255Z,95977.84
2023-01-09T03:38:41.129Z,95971.34
2023-01-09T03:41:08.230Z,95976.50
2023-01-09T03:43:35.593Z,95976.63
2023-01-09T03:46:03.202Z,95972.97
2023-01-09T03:48:30.206Z,95978.66
2023-01-09T03:50:57.377Z,95988.28
2023-01-09T03:53:27.330Z,95997.91
2023-01-09T03:55:57.512Z,95996.41
2023-01-09T03:58:26.057Z,96004.38
2023-01-09T04:00:58.981Z,95998.28
2023-01-09T04:03:25.795Z,96011.31
2023-01-09T04:05:52.715Z,96017.16
2023-01-09T04:08:19.764Z,96000.88
2023-01-09T04:10:49.175Z,96006.34
2023-01-09T04:13:16.395Z,96000.47
2023-01-09T04:15:43.171Z,96021.81
2023-01-09T04:18:10.033Z,96018.28
2023-01-09T04:20:37.051Z,96017.56
2023-01-09T04:23:03.821Z,96013.34
2023-01-09T04:25:31.004Z,96023.66
2023-01-09T04:27:57.788Z,96025.44
2023-01-09T04:30:24.824Z,96034.56
2023-01-09T04:32:52.319Z,96031.72
2023-01-09T04:35:20.208Z,96030.63
2023-01-09T04:37:47.294Z,96034.03
2023-01-09T04:40:14.540Z,96027.66
2023-01-09T04:42:42.000Z,96032.97
2023-01-09T04:45:11.522Z,96025.81
2023-01-09T04:47:38.515Z,96033.41
2023-01-09T04:50:05.683Z,96024.75
2023-01-09T04:52:32.499Z,96034.13
2023-01-09T04:54:59.255Z,96041.13
2023-01-09T04:57:26.089Z,96044.66
2023-01-09T04:59:54.156Z,96050.63
2023-01-09T05:02:21.115Z,96066.91
2023-01-09T05:04:47.961Z,96059.91
2023-01-09T05:07:14.984Z,96064.94
2023-01-09T05:09:41.960Z,96071.59
2023-01-09T05:12:08.733Z,96074.16
2023-01-09T05:14:35.514Z,96082.56
2023-01-09T05:17:02.419Z,96082.34
2023-01-09T05:19:29.202Z,96070.94
2023-01-09T05:21:55.975Z,96074.91
2023-01-09T05:24:22.714Z,96078.16
2023-01-09T05:26:49.438Z,96086.56
2023-01-09T05:29:16.157Z,96108.84
2023-01-09T05:31:42.925Z,96107.22
2023-01-09T05:34:09.716Z,96102.88
2023-01-09T05:36:36.476Z,96105.22
2023-01-09T05:39:03.682Z,96104.25
2023-01-09T05:41:30.629Z,96116.22
2023-01-09T05:44:00.579Z,96124.78
2023-01-09T05:46:27.363Z,96113.38
2023-01-09T05:48:54.059Z,96126.81
2023-01-09T05:51:20.775Z,96129.28
2023-01-09T05:53:47.741Z,96131.47
2023-01-09T05:56:14.718Z,96138.13
2023-01-09T05:58:41.520Z,96130.41
2023-01-09T06:01:08.912Z,96124.97
2023-01-09T06:03:35.767Z,96147.00
2023-01-09T06:06:02.566Z,96132.06
2023-01-09T06:08:29.278Z,96134.25
2023-01-09T06:10:55.972Z,96141.22
2023-01-09T06:13:22.717Z,96136.59
2023-01-09T06:15:49.568Z,96139.75
2023-01-09T06:18:16.582Z,96145.47
2023-01-09T06:20:45.886Z,96151.19
2023-01-09T06:23:13.867Z,96153.53
2023-01-09T06:25:41.232Z,96161.81
2023-01-09T06:28:08.199Z,96169.19
2023-01-09T06:30:35.106Z,96177.91
2023-01-09T06:33:01.901Z,96178.22
2023-01-09T06:35:28.742Z,96188.81
2023-01-09T06:37:55.624Z,96185.56
2023-01-09T06:40:22.425Z,96196.31
2023-01-09T06:42:49.929Z,96197.25
2023-01-09T06:45:16.940Z,96197.25
2023-01-09T06:47:43.909Z,96200.09
2023-01-09T06:50:11.502Z,96195.88
2023-01-09T06:52:38.812Z,96207.44
2023-01-09T06:55:06.744Z,96210.03
2023-01-09T06:57:33.611Z,96221.03
2023-01-09T07:00:00.393Z,96232.22
2023-01-09T07:02:27.363Z,96239.03
2023-01-09T07:04:54.087Z,96248.69
2023-01-09T07:07:22.388Z,96241.31
2023-01-09T07:09:49.382Z,96262.53
2023-01-09T07:12:16.126Z,96259.25
2023-01-09T07:14:42.922Z,96254.09
2023-01-09T07:17:14.308Z,96244.06
2023-01-09T07:19:41.163Z,96262.28
2023-01-09T07:22:08.761Z,96286.03
2023-01-09T07:24:35.530Z,96273.13
2023-01-09T07:27:02.976Z,96275.16
2023-01-09T07:29:30.103Z,96291.34
2023-01-09T07:31:57.409Z,96279.50
2023-01-09T07:34:24.150Z,96266.84
2023-01-09T07:36:51.201Z,96275.28
2023-01-09T07:39:18.088Z,96282.34
2023-01-09T07:41:45.968Z,96286.72
2023-01-09T07:44:13.899Z,96284.13
2023-01-09T07:46:40.712Z,96295.13
2023-01-09T07:49:07.919Z,96302.75
2023-01-09T07:51:34.685Z,96298.97
2023-01-09T07:54:01.772Z,96309.88
2023-01-09T07:56:28.501Z,96309.06
2023-01-09T07:58:55.226Z,96308.25
2023-01-09T08:01:22.187Z,96314.00
2023-01-09T08:03:51.508Z,96316.81
2023-01-09T08:06:18.341Z,96345.69
2023-01-09T08:08:45.143Z,96308.03
2023-01-09T08:11:11.905Z,96314.31
2023-01-09T08:13:38.623Z,96323.41
2023-01-09T08:16:06.035Z,96331.41
2023-01-09T08:18:32.778Z,96336.03
2023-01-09T08:20:59.908Z,96339.44
2023-01-09T08:23:26.672Z,96347.19
2023-01-09T08:25:53.952Z,96347.88
2023-01-09T08:28:20.687Z,96351.00
2023-01-09T08:30:47.731Z,96356.03
2023-01-09T08:33:14.936Z,96362.16
2023-01-09T08:35:44.302Z,96363.00
2023-01-09T08:38:11.343Z,96361.94
2023-01-09T08:40:38.315Z,96369.09
2023-01-09T08:43:23.969Z,96398.22
2023-01-09T08:46:09.779Z,96400.94
2023-01-09T08:48:36.537Z,96403.97
2023-01-09T08:51:03.449Z,96405.88
2023-01-09T08:53:31.351Z,96392.97
2023-01-09T08:55:58.168Z,96383.44
2023-01-09T08:58:24.876Z,96401.41
2023-01-09T09:00:51.829Z,96398.34
2023-01-09T09:03:18.605Z,96400.53
2023-01-09T09:05:46.798Z,96404.06
2023-01-09T09:08:13.748Z,96410.31
2023-01-09T09:10:40.483Z,96411.25
2023-01-09T09:13:07.191Z,96411.41
2023-01-09T09:15:34.365Z,96424.19
2023-01-09T09:18:04.959Z,96414.41
2023-01-09T09:20:35.525Z,96411.56
2023-01-09T09:23:02.731Z,96412.09
2023-01-09T09:25:29.594Z,96409.53
2023-01-09T09:27:56.391Z,96420.81
2023-01-09T09:30:24.660Z,96414.00
2023-01-09T09:32:51.346Z,96427.75
2023-01-09T09:35:20.782Z,96418.22
2023-01-09T09:38:00.144Z,96429.44
2023-01-09T09:41:04.132Z,96433.69
2023-01-09T09:44:18.643Z,96435.75
2023-01-09T09:47:06.343Z,96438.94
2023-01-09T09:49:55.396Z,96434.47
2023-01-09T09:53:13.243Z,96439.38
2023-01-09T09:55:42.493Z,96430.00
2023-01-09T09:58:39.386Z,96454.59
2023-01-09T10:01:11.384Z,96458.25
2023-01-09T10:03:56.506Z,96453.91
2023-01-09T10:06:29.067Z,96449.94
2023-01-09T10:09:17.154Z,96456.44
2023-01-09T10:12:08.650Z,96446.38
2023-01-09T10:14:35.405Z,96458.88
2023-01-09T10:18:05.323Z,96464.88
2023-01-09T10:21:15.710Z,96465.41
2023-01-09T10:24:38.323Z,96455.91
2023-01-09T10:27:49.478Z,96452.34
2023-01-09T10:30:40.727Z,96442.56
2023-01-09T10:33:31.892Z,96438.25
2023-01-09T10:36:16.139Z,96433.63
2023-01-09T10:38:48.746Z,96423.00
2023-01-09T10:41:38.196Z,96424.38
2023-01-09T10:44:23.254Z,96424.81
2023-01-09T10:46:56.316Z,96427.69
2023-01-09T10:49:25.334Z,96423.31
2023-01-09T10:52:13.310Z,96431.78
2023-01-09T10:54:51.464Z,96437.47
2023-01-09T10:57:32.044Z,96438.03
2023-01-09T10:59:58.936Z,96446.69
2023-01-09T11:02:34.118Z,96443.88
2023-01-09T11:05:00.984Z,96444.56
2023-01-09T11:07:34.655Z,96453.00
2023-01-09T11:10:09.557Z,96443.59
2023-01-09T11:12:36.815Z,96433.94
2023-01-09T11:15:29.091Z,96441.44
2023-01-09T11:18:17.501Z,96431.75
2023-01-09T11:20:44.971Z,96435.03
2023-01-09T11:23:33.147Z,96442.63
2023-01-09T11:26:02.820Z,96447.38
2023-01-09T11:28:29.668Z,96450.78
2023-01-09T11:31:00.718Z,96449.13
2023-01-09T11:33:37.630Z,96453.75
2023-01-09T11:36:10.843Z,96437.94
2023-01-09T11:38:54.606Z,96438.59
2023-01-09T11:41:35.089Z,96436.56
2023-01-09T11:44:04.517Z,96432.53
2023-01-09T11:46:40.811Z,96434.72
2023-01-09T11:49:31.026Z,96431.72
2023-01-09T11:52:24.667Z,96412.41
2023-01-09T11:55:04.420Z,96419.47
2023-01-09T11:57:32.751Z,96420.84
2023-01-09T12:00:24.153Z,96425.09
2023-01-09T12:03:20.243Z,96415.16
2023-01-09T12:06:03.601Z,96407.94
2023-01-09T12:09:04.250Z,96414.59
2023-01-09T12:11:59.717Z,96415.72
2023-01-09T12:15:18.360Z,96420.22
2023-01-09T12:18:06.091Z,96424.72
2023-01-09T12:20:43.697Z,96426.34
2023-01-09T12:23:39.946Z,96428.00
2023-01-09T12:26:17.772Z,96430.00
2023-01-09T12:29:17.031Z,96436.94
2023-01-09T12:32:15.612Z,96440.47
2023-01-09T12:34:59.117Z,96442.84
2023-01-09T12:37:50.842Z,96436.03
2023-01-09T12:40:49.722Z,96442.84
2023-01-09T12:44:06.341Z,96451.09
2023-01-09T12:47:00.828Z,96442.66
2023-01-09T12:49:39.202Z,96447.81
2023-01-09T12:52:23.441Z,96447.41
2023-01-09T12:55:04.961Z,96440.78
2023-01-09T12:57:42.050Z,96441.06
2023-01-09T13:00:23.003Z,96446.94
2023-01-09T13:03:18.395Z,96444.59
2023-01-09T13:05:51.503Z,96448.28
2023-01-09T13:08:33.350Z,96449.91
2023-01-09T13:11:20.031Z,96449.09
2023-01-09T13:14:01.817Z,96451.56
2023-01-09T13:16:36.619Z,96446.94
2023-01-09T13:19:14.258Z,96450.63
2023-01-09T13:21:42.059Z,96445.47
2023-01-09T13:24:27.617Z,96462.06
2023-01-09T13:27:07.129Z,96455.41
2023-01-09T13:29:50.372Z,96459.03
2023-01-09T13:32:35.398Z,96458.13
2023-01-09T13:35:03.047Z,96456.75
2023-01-09T13:37:36.719Z,96444.94
2023-01-09T13:40:06.955Z,96441.94
2023-01-09T13:42:38.831Z,96454.63
2023-01-09T13:45:31.766Z,96456.38
2023-01-09T13:48:19.043Z,96454.75
2023-01-09T13:50:47.355Z,96449.03
2023-01-09T13:53:20.011Z,96455.03
2023-01-09T13:55:59.525Z,96456.66
2023-01-09T13:58:58.225Z,96449.41
2023-01-09T14:01:25.134Z,96459.06
2023-01-09T14:04:14.742Z,96455.13
2023-01-09T14:06:43.969Z,96454.59
2023-01-09T14:09:23.090Z,96449.00
2023-01-09T14:12:06.397Z,96449.00
2023-01-09T14:14:34.862Z,96447.66
2023-01-09T14:17:03.272Z,96449.03
2023-01-09T14:19:39.164Z,96462.25
2023-01-09T14:22:23.567Z,96460.19
2023-01-09T14:24:52.803Z,96462.50
2023-01-09T14:27:57.036Z,96461.41
2023-01-09T14:30:26.879Z,96464.25
2023-01-09T14:33:17.360Z,96473.25
2023-01-09T14:35:52.224Z,96477.59
2023-01-09T14:38:35.971Z,96475.44
2023-01-09T14:41:45.653Z,96478.00
2023-01-09T14:44:31.532Z,96478.16
2023-01-09T14:47:48.768Z,96484.41
2023-01-09T14:50:40.896Z,96486.44
2023-01-09T14:53:29.539Z,96480.69
2023-01-09T14:55:59.491Z,96480.28
2023-01-09T14:58:32.010Z,96492.66
2023-01-09T15:01:05.525Z,96495.53
2023-01-09T15:04:15.995Z,96503.53
2023-01-09T15:06:45.393Z,96495.91
2023-01-09T15:09:44.960Z,96501.75
2023-01-09T15:12:22.780Z,96513.88
2023-01-09T15:14:56.445Z,96513.44
2023-01-09T15:17:32.511Z,96539.00
2023-01-09T15:20:02.838Z,96536.00
2023-01-09T15:22:36.726Z,96555.09
2023-01-09T15:25:38.151Z,96569.53
2023-01-09T15:28:27.061Z,96569.22
2023-01-09T15:31:17.802Z,96574.75
2023-01-09T15:33:47.790Z,96581.66
2023-01-09T15:36:25.886Z,96573.00
2023-01-09T15:38:54.086Z,96557.31
2023-01-09T15:41:46.725Z,96563.44
2023-01-09T15:44:21.040Z,96578.81
2023-01-09T15:46:50.016Z,96575.44
2023-01-09T15:49:19.210Z,96583.16
2023-01-09T15:51:48.357Z,96589.72
2023-01-09T15:54:25.367Z,96599.81
2023-01-09T15:56:52.167Z,96603.31
2023-01-09T15:59:27.244Z,96600.41
2023-01-09T16:02:24.027Z,96608.03
2023-01-09T16:04:54.630Z,96612.25
2023-01-09T16:07:21.515Z,96614.72
2023-01-09T16:09:52.536Z,96615.28
2023-01-09T16:12:26.088Z,96620.22
2023-01-09T16:14:57.544Z,96624.66
2023-01-09T16:17:26.761Z,96613.06
2023-01-09T16:19:57.791Z,96616.84
2023-01-09T16:22:31.431Z,96615.19
2023-01-09T16:25:01.979Z,96613.66
2023-01-09T16:27:33.203Z,96619.75
2023-01-09T16:30:07.556Z,96621.38
2023-01-09T16:32:48.274Z,96618.94
2023-01-09T16:35:18.953Z,96628.44
2023-01-09T16:37:46.119Z,96635.94
2023-01-09T16:40:18.359Z,96633.34
2023-01-09T16:43:07.237Z,96629.81
2023-01-09T16:45:42.217Z,96629.00
2023-01-09T16:48:17.417Z,96646.25
2023-01-09T16:50:44.697Z,96647.31
2023-01-09T16:53:19.491Z,96650.72
2023-01-09T16:55:46.666Z,96639.94
2023-01-09T16:58:24.600Z,96641.31
2023-01-09T17:00:51.831Z,96649.66
2023-01-09T17:03:20.110Z,96647.19
2023-01-09T17:05:54.362Z,96641.53
2023-01-09T17:08:25.399Z,96658.91
2023-01-09T17:10:54.435Z,96667.69
2023-01-09T17:13:21.872Z,96663.75
2023-01-09T17:15:48.757Z,96662.25
2023-01-09T17:18:22.125Z,96667.50
2023-01-09T17:20:54.424Z,96671.63
2023-01-09T17:23:25.718Z,96673.38
2023-01-09T17:26:17.246Z,96677.00
2023-01-09T17:28:49.587Z,96678.75
2023-01-09T17:31:17.178Z,96684.28
2023-01-09T17:33:43.927Z,96692.13
2023-01-09T17:36:26.409Z,96686.22
2023-01-09T17:38:54.989Z,96683.88
2023-01-09T17:41:24.422Z,96692.31
2023-01-09T17:43:52.055Z,96685.06
2023-01-09T17:46:27.516Z,96686.22
2023-01-09T17:48:54.411Z,96692.75
2023-01-09T17:51:21.999Z,96694.84
2023-01-09T17:53:49.208Z,96687.31
2023-01-09T17:56:25.164Z,96687.53
2023-01-09T17:58:52.663Z,96690.47
2023-01-09T18:01:20.352Z,96700.88
2023-01-09T18:03:48.931Z,96704.47
2023-01-09T18:06:20.178Z,96722.03
2023-01-09T18:08:47.596Z,96714.66
2023-01-09T18:11:18.685Z,96714.03
2023-01-09T18:13:47.248Z,96718.59
2023-01-09T18:16:17.838Z,96729.09
2023-01-09T18:18:45.176Z,96733.34
2023-01-09T18:21:17.171Z,96729.00
2023-01-09T18:23:44.382Z,96731.47
2023-01-09T18:26:19.898Z,96741.66
2023-01-09T18:28:58.469Z,96748.44
2023-01-09T18:31:27.273Z,96758.56
2023-01-09T18:33:56.658Z,96757.50
2023-01-09T18:36:29.985Z,96770.88
2023-01-09T18:38:59.892Z,96772.94
2023-01-09T18:41:27.353Z,96785.47
2023-01-09T18:43:57.573Z,96792.06
2023-01-09T18:46:25.733Z,96808.97
2023-01-09T18:49:01.391Z,96807.09
2023-01-09T18:51:29.470Z,96801.00
2023-01-09T18:53:56.645Z,96804.63
2023-01-09T18:56:24.676Z,96814.72
2023-01-09T18:58:57.018Z,96796.56
2023-01-09T19:01:25.068Z,96810.38
2023-01-09T19:03:52.133Z,96809.56
2023-01-09T19:06:19.221Z,96812.75
2023-01-09T19:08:45.925Z,96808.97
2023-01-09T19:11:12.853Z,96817.13
2023-01-09T19:13:42.989Z,96808.78
2023-01-09T19:16:10.824Z,96818.28
2023-01-09T19:18:42.617Z,96820.75
2023-01-09T19:21:11.816Z,96819.69
2023-01-09T19:23:39.537Z,96834.75
2023-01-09T19:26:08.800Z,96831.13
2023-01-09T19:28:36.397Z,96833.59
2023-01-09T19:31:03.608Z,96836.38
2023-01-09T19:33:30.317Z,96835.28
2023-01-09T19:35:57.235Z,96832.31
2023-01-09T19:38:24.116Z,96836.47
2023-01-09T19:40:51.146Z,96842.03
2023-01-09T19:43:26.785Z,96849.03
2023-01-09T19:45:56.644Z,96846.69
2023-01-09T19:48:26.955Z,96840.94
2023-01-09T19:51:07.569Z,96845.38
2023-01-09T19:53:35.904Z,96856.50
2023-01-09T19:56:13.421Z,96862.56
2023-01-09T19:58:42.876Z,96866.91
2023-01-09T20:01:13.428Z,96866.25
2023-01-09T20:03:42.603Z,96874.22
2023-01-09T20:06:14.229Z,96880.41
2023-01-09T20:08:42.448Z,96873.72
2023-01-09T20:11:09.340Z,96888.41
2023-01-09T20:13:36.671Z,96883.25
2023-01-09T20:16:04.480Z,96905.94
2023-01-09T20:18:33.821Z,96891.91
2023-01-09T20:21:01.706Z,96906.38
2023-01-09T20:23:28.613Z,96892.66
2023-01-09T20:25:56.973Z,96890.91
2023-01-09T20:28:25.183Z,96892.66
2023-01-09T20:30:53.518Z,96899.66
2023-01-09T20:33:21.988Z,96897.28
2023-01-09T20:35:48.832Z,96903.47
2023-01-09T20:38:16.063Z,96901.22
2023-01-09T20:40:43.921Z,96905.63
2023-01-09T20:43:16.544Z,96909.13
2023-01-09T20:45:43.363Z,96917.69
2023-01-09T20:48:11.110Z,96920.06
2023-01-09T20:50:38.274Z,96925.72
2023-01-09T20:53:07.739Z,96927.06
2023-01-09T20:55:34.831Z,96927.78
2023-01-09T20:58:01.659Z,96930.16
2023-01-09T21:00:31.889Z,96933.34
2023-01-09T21:02:59.456Z,96935.81
2023-01-09T21:05:26.559Z,96940.84
2023-01-09T21:07:53.293Z,96931.59
2023-01-09T21:10:20.036Z,96937.34
2023-01-09T21:12:46.825Z,96947.75
2023-01-09T21:15:16.551Z,96952.09
2023-01-09T21:17:44.073Z,96951.16
2023-01-09T21:20:14.728Z,96950.22
2023-01-09T21:22:42.074Z,96953.56
2023-01-09T21:25:09.139Z,96959.53
2023-01-09T21:27:42.836Z,96966.22
2023-01-09T21:30:10.685Z,96963.31
2023-01-09T21:32:37.862Z,96982.72
2023-01-09T21:35:06.726Z,96973.94
2023-01-09T21:37:36.610Z,96976.31
2023-01-09T21:40:06.553Z,96978.69
2023-01-09T21:42:51.859Z,96982.78
2023-01-09T21:45:37.351Z,96995.50
2023-01-09T21:48:06.035Z,97001.38
2023-01-09T21:50:36.312Z,97008.16
2023-01-09T21:53:03.981Z,97002.09
2023-01-09T21:55:32.046Z,97015.69
2023-01-09T21:58:01.103Z,97016.28
2023-01-09T22:00:28.946Z,97016.22
2023-01-09T22:02:56.236Z,97026.31
2023-01-09T22:05:27.101Z,97026.22
2023-01-09T22:07:56.086Z,97036.19
2023-01-09T22:10:23.111Z,97047.22
2023-01-09T22:13:09.786Z,97045.47
2023-01-09T22:15:36.556Z,97062.63
2023-01-09T22:18:03.293Z,97050.63
2023-01-09T22:20:30.077Z,97056.59
2023-01-09T22:22:56.794Z,97060.22
2023-01-09T22:25:23.511Z,97069.50
2023-01-09T22:27:50.212Z,97065.50
2023-01-09T22:30:17.447Z,97073.34
2023-01-09T22:32:44.497Z,97079.53
2023-01-09T22:35:11.397Z,97088.19
2023-01-09T22:37:38.243Z,97100.38
2023-01-09T22:40:05.724Z,97101.47
2023-01-09T22:42:32.474Z,97102.31
2023-01-09T22:44:59.163Z,97105.81
2023-01-09T22:47:25.876Z,97109.31
2023-01-09T22:49:53.451Z,97116.34
2023-01-09T22:52:21.429Z,97117.88
2023-01-09T22:54:48.659Z,97118.91
2023-01-09T22:57:15.415Z,97124.69
2023-01-09T22:59:42.166Z,97126.34
2023-01-09T23:02:08.984Z,97122.81
2023-01-09T23:04:35.740Z,97126.16
2023-01-09T23:07:02.434Z,97134.59
2023-01-09T23:09:29.126Z,97132.13
2023-01-09T23:12:05.446Z,97142.44
2023-01-09T23:14:36.711Z,97159.56
2023-01-09T23:17:05.334Z,97160.38
2023-01-09T23:19:32.595Z,97158.63
2023-01-09T23:22:04.303Z,97164.63
2023-01-09T23:24:31.471Z,97163.69
2023-01-09T23:26:58.526Z,97175.03
2023-01-09T23:29:25.998Z,97174.31
2023-01-09T23:31:53.799Z,97170.91
2023-01-09T23:34:25.500Z,97172.56
2023-01-09T23:36:55.274Z,97179.25
2023-01-09T23:39:22.002Z,97179.25
2023-01-09T23:42:07.380Z,97187.81
2023-01-09T23:44:36.205Z,97186.06
2023-01-09T23:47:03.170Z,97180.81
2023-01-09T23:49:30.106Z,97199.69
2023-01-09T23:51:57.176Z,97196.28
2023-01-09T23:54:24.793Z,97203.09
2023-01-09T23:56:53.286Z,97203.91
2023-01-09T23:59:20.164Z,97207.31
